Delray Beach, FL

4:49 AM EST on November 23, 2014 (GMT -0500)
Lake Ida | Change Station
CLOSE
Current Station
Personal Weather Station
Location: Delray Beach, FL
Elevation: 10 ft
Nearby Weather Stations
Active Advisory: Coastal Hazard Statement

Elev 10 ft 26.47 °N, 80.08 °W | Updated 19 seconds ago

Mostly Cloudy
Mostly Cloudy
76.6 °F
Feels Like 78 °F
N
0.0
Wind Variable Wind from SE
Gusts 12.0 mph

Today
High -- | Low -- °F
--% Chance of Precip.
Yesterday
High -- | Low -- °F
Precip. -- in
6:45 AM 5:28 PM
New Moon, 1% visible
Pressure 30.02 in
Visibility 8.0 miles
Clouds Scattered Clouds 2000 ft
Scattered Clouds 2700 ft
Heat Index 78 °F
Dew Point 72 °F
Humidity 87%
Rainfall 0.11 in
Snow Depth Not available.
UV 0 out of 12
Pollen 4.30 out of 12
Air Quality Not available.
Flu Activity Not available.
METAR KPMP 230853Z 13017G26KT 8SM SCT020 SCT027 26/22 A3002 RMK AO2 PK WND 13026/0844 SLP165 T02560222 56014

More Conditions Fewer Conditions

Pressure 30.02 in
Visibility 8.0 miles
Clouds Scattered Clouds 2000 ft
Scattered Clouds 2700 ft
Heat Index 78 °F
Dew Point 72 °F
Humidity 87%
Rainfall 0.11 in
Snow Depth Not available.
UV 0 out of 12
Pollen 4.30 out of 12
Air Quality Not available.
Flu Activity Not available.
METAR KPMP 230853Z 13017G26KT 8SM SCT020 SCT027 26/22 A3002 RMK AO2 PK WND 13026/0844 SLP165 T02560222 56014

More Conditions Fewer Conditions

10-Day Weather Forecast

Almanac

Astronomy

Nov. 23, 2014 Rise Set
Actual Time
Civil Twilight
Nautical Twilight
Astronomical Twilight
Moon
Length of Visible Light
Length of Day
Tomorrow will be .
, % of the Moon is Illuminated

Today's Extremes

State Highs State Lows

Community

WunderPhotos

Upload Photos

1,773,032 photos uploaded!

WunderBlogs® & News

Nearby

Air Quality

  Air Quality AQ Index Pollutant
Not available.

Snow Depth

Station Depth Elevation

Earthquake Activity

City Distance Mag. Time & Date
Minimum magnitude displayed is 2.5.

Coastal Water Temperatures

Place Temperature

Nearby Weather Stations